createdAt,value
2023-03-13T00:01:25.465Z,99533.59
2023-03-13T00:03:55.182Z,99530.00
2023-03-13T00:06:29.122Z,99521.77
2023-03-13T00:08:56.656Z,99517.67
2023-03-13T00:11:24.221Z,99513.05
2023-03-13T00:13:58.074Z,99505.67
2023-03-13T00:16:27.769Z,99496.77
2023-03-13T00:18:57.484Z,99497.83
2023-03-13T00:21:30.680Z,99491.48
2023-03-13T00:24:00.241Z,99487.54
2023-03-13T00:26:31.213Z,99481.22
2023-03-13T00:28:59.399Z,99466.83
2023-03-13T00:31:30.657Z,99457.76
2023-03-13T00:34:03.260Z,99452.45
2023-03-13T00:36:35.745Z,99441.14
2023-03-13T00:39:05.213Z,99432.58
2023-03-13T00:41:34.114Z,99427.27
2023-03-13T00:44:01.685Z,99427.96
2023-03-13T00:46:30.434Z,99429.15
2023-03-13T00:48:58.728Z,99430.02
2023-03-13T00:51:27.590Z,99430.19
2023-03-13T00:53:56.968Z,99424.89
2023-03-13T00:56:24.419Z,99424.89
2023-03-13T00:58:51.985Z,99431.05
2023-03-13T01:01:21.313Z,99435.32
2023-03-13T01:03:52.473Z,99436.70
2023-03-13T01:06:23.919Z,99431.73
2023-03-13T01:08:51.937Z,99427.63
2023-03-13T01:11:25.728Z,99420.44
2023-03-13T01:13:55.919Z,99417.51
2023-03-13T01:16:25.118Z,99410.32
2023-03-13T01:18:55.420Z,99406.04
2023-03-13T01:21:24.574Z,99405.00
2023-03-13T01:23:54.507Z,99402.95
2023-03-13T01:26:24.088Z,99390.95
2023-03-13T01:28:52.198Z,99381.54
2023-03-13T01:31:23.979Z,99384.09
2023-03-13T01:33:55.466Z,99389.75
2023-03-13T01:36:24.224Z,99385.30
2023-03-13T01:38:54.434Z,99387.35
2023-03-13T01:41:23.506Z,99388.02
2023-03-13T01:43:51.497Z,99387.19
2023-03-13T01:46:21.505Z,99376.90
2023-03-13T01:49:05.888Z,99372.44
2023-03-13T01:51:49.835Z,99377.07
2023-03-13T01:54:59.560Z,99378.62
2023-03-13T01:57:31.421Z,99384.61
2023-03-13T02:00:10.466Z,99389.06
2023-03-13T02:02:42.602Z,99394.90
2023-03-13T02:05:10.544Z,99397.80
2023-03-13T02:07:42.158Z,99389.57
2023-03-13T02:10:11.684Z,99371.91
2023-03-13T02:12:41.160Z,99361.63
2023-03-13T02:15:15.066Z,99360.77
2023-03-13T02:17:44.577Z,99361.11
2023-03-13T02:20:14.405Z,99355.45
2023-03-13T02:22:47.645Z,99358.21
2023-03-13T02:25:37.332Z,99359.06
2023-03-13T02:28:09.459Z,99356.16
2023-03-13T02:30:39.342Z,99350.32
2023-03-13T02:33:06.981Z,99346.55
2023-03-13T02:35:36.035Z,99341.75
2023-03-13T02:38:08.258Z,99338.67
2023-03-13T02:40:40.407Z,99335.75
2023-03-13T02:43:14.632Z,99337.80
2023-03-13T02:45:42.232Z,99337.62
2023-03-13T02:48:09.789Z,99336.42
2023-03-13T02:50:40.912Z,99336.77
2023-03-13T02:53:09.208Z,99334.54
2023-03-13T02:55:42.460Z,99332.82
2023-03-13T02:58:10.032Z,99335.38
2023-03-13T03:00:37.588Z,99331.60
2023-03-13T03:03:05.142Z,99337.96
2023-03-13T03:05:35.817Z,99343.95
2023-03-13T03:08:03.306Z,99344.29
2023-03-13T03:10:30.815Z,99345.84
2023-03-13T03:12:58.401Z,99340.85
2023-03-13T03:15:25.964Z,99341.73
2023-03-13T03:17:53.472Z,99341.19
2023-03-13T03:20:20.938Z,99336.91
2023-03-13T03:22:48.431Z,99331.77
2023-03-13T03:25:16.075Z,99331.58
2023-03-13T03:27:43.874Z,99323.67
2023-03-13T03:30:12.176Z,99314.41
2023-03-13T03:32:39.680Z,99312.36
2023-03-13T03:35:07.626Z,99314.93
2023-03-13T03:37:35.359Z,99307.89
2023-03-13T03:40:05.696Z,99304.79
2023-03-13T03:42:33.876Z,99297.07
2023-03-13T03:45:01.511Z,99296.91
2023-03-13T03:47:29.213Z,99295.36
2023-03-13T03:49:56.775Z,99301.72
2023-03-13T03:52:24.285Z,99304.96
2023-03-13T03:54:51.791Z,99297.24
2023-03-13T03:57:19.338Z,99295.53
2023-03-13T03:59:46.863Z,99294.51
2023-03-13T04:02:14.491Z,99291.76
2023-03-13T04:04:42.378Z,99284.58
2023-03-13T04:07:10.131Z,99280.97
2023-03-13T04:09:37.651Z,99278.23
2023-03-13T04:12:05.455Z,99274.10
2023-03-13T04:14:32.946Z,99268.09
2023-03-13T04:17:00.518Z,99270.33
2023-03-13T04:19:28.284Z,99276.48
2023-03-13T04:21:55.884Z,99276.16
2023-03-13T04:24:24.536Z,99267.92
2023-03-13T04:26:52.006Z,99267.92
2023-03-13T04:29:19.528Z,99263.46
2023-03-13T04:31:47.077Z,99260.55
2023-03-13T04:34:14.633Z,99266.02
2023-03-13T04:36:42.270Z,99266.36
2023-03-13T04:39:09.797Z,99259.84
2023-03-13T04:41:37.354Z,99255.04
2023-03-13T04:44:05.052Z,99256.74
2023-03-13T04:46:32.758Z,99258.63
2023-03-13T04:49:02.126Z,99257.77
2023-03-13T04:51:30.212Z,99250.57
2023-03-13T04:54:00.813Z,99250.03
2023-03-13T04:56:42.156Z,99249.34
2023-03-13T04:59:14.722Z,99253.80
2023-03-13T05:01:44.436Z,99264.27
2023-03-13T05:04:12.488Z,99271.48
2023-03-13T05:06:40.054Z,99267.87
2023-03-13T05:09:07.643Z,99266.33
2023-03-13T05:11:35.119Z,99259.81
2023-03-13T05:14:02.699Z,99249.51
2023-03-13T05:16:30.214Z,99245.41
2023-03-13T05:18:57.716Z,99243.50
2023-03-13T05:21:25.589Z,99241.79
2023-03-13T05:23:53.121Z,99239.73
2023-03-13T05:26:22.082Z,99237.83
2023-03-13T05:28:49.596Z,99239.05
2023-03-13T05:31:17.249Z,99237.84
2023-03-13T05:33:45.348Z,99239.02
2023-03-13T05:36:12.833Z,99240.76
2023-03-13T05:38:40.640Z,99235.27
2023-03-13T05:41:08.207Z,99231.83
2023-03-13T05:43:35.724Z,99228.39
2023-03-13T05:46:03.365Z,99225.31
2023-03-13T05:48:31.020Z,99227.17
2023-03-13T05:50:58.599Z,99221.52
2023-03-13T05:53:27.750Z,99222.19
2023-03-13T05:55:56.352Z,99217.40
2023-03-13T05:58:24.146Z,99218.41
2023-03-13T06:00:51.705Z,99210.86
2023-03-13T06:03:19.338Z,99207.59
2023-03-13T06:05:46.970Z,99204.65
2023-03-13T06:08:14.551Z,99206.17
2023-03-13T06:10:42.088Z,99197.94
2023-03-13T06:13:19.422Z,99197.42
2023-03-13T06:15:55.922Z,99202.06
2023-03-13T06:18:24.480Z,99200.51
2023-03-13T06:20:58.760Z,99197.59
2023-03-13T06:23:27.874Z,99192.77
2023-03-13T06:26:02.127Z,99191.55
2023-03-13T06:28:30.852Z,99189.67
2023-03-13T06:31:04.432Z,99184.35
2023-03-13T06:33:35.504Z,99190.70
2023-03-13T06:36:05.214Z,99190.00
2023-03-13T06:38:34.195Z,99187.93
2023-03-13T06:41:07.841Z,99189.46
2023-03-13T06:44:08.553Z,99187.73
2023-03-13T06:46:59.635Z,99185.45
2023-03-13T06:49:41.723Z,99181.49
2023-03-13T06:52:18.761Z,99176.84
2023-03-13T06:54:48.548Z,99172.00
2023-03-13T06:57:22.019Z,99168.36
2023-03-13T06:59:55.248Z,99165.23
2023-03-13T07:02:24.928Z,99163.84
2023-03-13T07:04:54.764Z,99165.66
2023-03-13T07:07:31.800Z,99156.02
2023-03-13T07:10:03.966Z,99148.73
2023-03-13T07:12:31.546Z,99146.13
2023-03-13T07:15:02.448Z,99146.23
2023-03-13T07:17:33.024Z,99144.12
2023-03-13T07:20:11.252Z,99133.78
2023-03-13T07:22:52.758Z,99130.48
2023-03-13T07:25:20.574Z,99122.54
2023-03-13T07:27:52.462Z,99122.84
2023-03-13T07:30:20.632Z,99124.51
2023-03-13T07:32:48.349Z,99123.23
2023-03-13T07:35:15.971Z,99123.36
2023-03-13T07:37:51.046Z,99123.45
2023-03-13T07:40:22.750Z,99114.10
2023-03-13T07:42:50.304Z,99116.62
2023-03-13T07:45:20.017Z,99114.16
2023-03-13T07:47:50.715Z,99111.54
2023-03-13T07:50:18.771Z,99110.45
2023-03-13T07:52:47.199Z,99110.04
2023-03-13T07:55:15.197Z,99107.59
2023-03-13T07:57:42.689Z,99103.91
2023-03-13T08:00:16.528Z,99102.66
2023-03-13T08:02:45.069Z,99094.86
2023-03-13T08:05:21.389Z,99092.02
2023-03-13T08:07:48.890Z,99086.75
2023-03-13T08:10:17.390Z,99075.79
2023-03-13T08:12:49.706Z,99074.44
2023-03-13T08:15:26.207Z,99069.42
2023-03-13T08:17:54.394Z,99061.49
2023-03-13T08:20:22.183Z,99059.27
2023-03-13T08:22:50.842Z,99060.63
2023-03-13T08:25:26.469Z,99055.64
2023-03-13T08:27:55.249Z,99059.45
2023-03-13T08:30:31.331Z,99055.50
2023-03-13T08:32:59.580Z,99050.30
2023-03-13T08:35:31.809Z,99049.58
2023-03-13T08:38:07.177Z,99044.34
2023-03-13T08:40:35.888Z,99042.03
2023-03-13T08:43:05.736Z,99040.12
2023-03-13T08:45:37.391Z,99035.67
2023-03-13T08:48:10.245Z,99034.15
2023-03-13T08:50:40.026Z,99029.21
2023-03-13T08:53:08.136Z,99020.54
2023-03-13T08:55:42.288Z,99014.45
2023-03-13T08:58:16.733Z,99012.98
2023-03-13T09:00:48.535Z,99014.10
2023-03-13T09:03:18.199Z,99007.56
2023-03-13T09:05:55.912Z,99000.42
2023-03-13T09:08:26.625Z,98997.92
2023-03-13T09:11:02.074Z,98991.77
2023-03-13T09:13:31.950Z,98994.88
2023-03-13T09:16:07.047Z,98987.20
2023-03-13T09:18:35.788Z,98983.40
2023-03-13T09:21:08.188Z,98982.08
2023-03-13T09:23:36.722Z,98977.89
2023-03-13T09:26:05.932Z,98975.83
2023-03-13T09:28:34.688Z,98974.36
2023-03-13T09:31:12.433Z,98979.90
2023-03-13T09:33:42.810Z,98969.05
2023-03-13T09:36:14.310Z,98964.56
2023-03-13T09:38:43.355Z,98962.04
2023-03-13T09:41:24.309Z,98958.09
2023-03-13T09:44:16.591Z,98955.41
2023-03-13T09:47:00.113Z,98950.09
2023-03-13T09:49:44.079Z,98945.47
2023-03-13T09:52:27.203Z,98943.27
2023-03-13T09:55:18.752Z,98938.19
2023-03-13T09:57:58.977Z,98932.41
2023-03-13T10:00:33.449Z,98927.48
2023-03-13T10:03:20.864Z,98927.38
2023-03-13T10:06:12.392Z,98917.61
2023-03-13T10:08:41.093Z,98912.98
2023-03-13T10:11:38.669Z,98904.48
2023-03-13T10:14:39.700Z,98900.58
2023-03-13T10:17:20.478Z,98904.66
2023-03-13T10:20:00.237Z,98897.90
2023-03-13T10:22:34.886Z,98897.33
2023-03-13T10:25:45.343Z,98886.76
2023-03-13T10:28:23.100Z,98882.77
2023-03-13T10:31:01.456Z,98876.65
2023-03-13T10:33:34.981Z,98865.61
2023-03-13T10:36:11.412Z,98861.06
2023-03-13T10:38:54.046Z,98849.06
2023-03-13T10:41:35.501Z,98837.09
2023-03-13T10:44:11.561Z,98830.05
2023-03-13T10:46:52.850Z,98825.59
2023-03-13T10:49:24.629Z,98823.09
2023-03-13T10:52:27.607Z,98820.47
2023-03-13T10:55:00.975Z,98811.86
2023-03-13T10:57:31.467Z,98808.27
2023-03-13T11:00:00.762Z,98803.63
2023-03-13T11:02:35.831Z,98801.91
2023-03-13T11:05:25.579Z,98802.94
2023-03-13T11:07:54.100Z,98793.70
2023-03-13T11:10:22.988Z,98794.91
2023-03-13T11:12:53.245Z,98790.44
2023-03-13T11:15:32.678Z,98785.21
2023-03-13T11:18:14.668Z,98785.42
2023-03-13T11:20:45.849Z,98778.30
2023-03-13T11:23:28.136Z,98775.30
2023-03-13T11:26:13.758Z,98770.98
2023-03-13T11:28:56.790Z,98765.05
2023-03-13T11:31:37.785Z,98757.64
2023-03-13T11:34:26.901Z,98760.77
2023-03-13T11:37:02.621Z,98752.34
2023-03-13T11:39:49.247Z,98746.73
2023-03-13T11:42:34.906Z,98745.45
2023-03-13T11:45:32.156Z,98743.05
2023-03-13T11:48:07.298Z,98732.60
2023-03-13T11:50:52.425Z,98729.91
2023-03-13T11:53:39.153Z,98721.53
2023-03-13T11:56:17.931Z,98714.91
2023-03-13T11:59:16.741Z,98712.59
2023-03-13T12:01:55.756Z,98706.11
2023-03-13T12:04:30.978Z,98706.93
2023-03-13T12:07:06.633Z,98704.42
2023-03-13T12:09:45.788Z,98692.16
2023-03-13T12:12:27.185Z,98680.39
2023-03-13T12:15:04.433Z,98671.98
2023-03-13T12:17:38.709Z,98665.84
2023-03-13T12:20:22.347Z,98663.08
2023-03-13T12:23:11.087Z,98660.14
2023-03-13T12:25:48.327Z,98653.55
2023-03-13T12:28:34.932Z,98649.46
2023-03-13T12:31:17.769Z,98645.13
2023-03-13T12:33:58.131Z,98645.52
2023-03-13T12:36:40.432Z,98640.92
2023-03-13T12:39:23.857Z,98636.27
2023-03-13T12:42:12.703Z,98627.48
2023-03-13T12:44:41.199Z,98624.37
2023-03-13T12:47:31.639Z,98618.31
2023-03-13T12:50:16.768Z,98597.10
2023-03-13T12:53:03.437Z,98578.92
2023-03-13T12:55:33.958Z,98594.47
2023-03-13T12:58:24.611Z,98593.87
2023-03-13T13:00:55.141Z,98594.38
2023-03-13T13:03:37.858Z,98587.28
2023-03-13T13:06:11.616Z,98584.39
2023-03-13T13:08:41.994Z,98574.90
2023-03-13T13:11:39.642Z,98577.69
2023-03-13T13:14:23.585Z,98582.63
2023-03-13T13:16:57.373Z,98573.68
2023-03-13T13:19:25.140Z,98564.64
2023-03-13T13:22:24.993Z,98557.50
2023-03-13T13:25:22.075Z,98555.54
2023-03-13T13:27:49.851Z,98560.05
2023-03-13T13:30:17.477Z,98553.67
2023-03-13T13:32:48.288Z,98551.80
2023-03-13T13:35:29.146Z,98543.70
2023-03-13T13:38:18.539Z,98544.10
2023-03-13T13:41:02.021Z,98537.41
2023-03-13T13:43:35.329Z,98530.50
2023-03-13T13:46:23.781Z,98523.61
2023-03-13T13:49:16.295Z,98529.00
2023-03-13T13:52:03.989Z,98523.30
2023-03-13T13:54:33.561Z,98522.41
2023-03-13T13:57:21.194Z,98516.50
2023-03-13T13:59:56.394Z,98508.19
2023-03-13T14:02:34.579Z,98508.52
2023-03-13T14:05:15.350Z,98510.05
2023-03-13T14:08:09.281Z,98497.95
2023-03-13T14:10:42.414Z,98493.62
2023-03-13T14:13:20.444Z,98490.10
2023-03-13T14:15:50.008Z,98487.26
2023-03-13T14:18:23.983Z,98488.27
2023-03-13T14:20:59.187Z,98490.20
2023-03-13T14:23:32.523Z,98480.19
2023-03-13T14:26:13.868Z,98468.61
2023-03-13T14:28:43.810Z,98467.54
2023-03-13T14:31:31.640Z,98461.30
2023-03-13T14:34:05.636Z,98457.82
2023-03-13T14:36:59.002Z,98466.29
2023-03-13T14:39:32.073Z,98469.20
2023-03-13T14:42:22.580Z,98462.41
2023-03-13T14:44:50.492Z,98459.27
2023-03-13T14:47:31.948Z,98459.13
2023-03-13T14:50:09.430Z,98459.10
2023-03-13T14:52:44.342Z,98458.85
2023-03-13T14:55:29.796Z,98457.09
2023-03-13T14:58:06.211Z,98457.25
2023-03-13T15:00:45.394Z,98463.85
2023-03-13T15:03:22.022Z,98463.70
2023-03-13T15:05:51.017Z,98462.34
2023-03-13T15:08:23.869Z,98453.30
2023-03-13T15:10:51.478Z,98462.44
2023-03-13T15:13:33.334Z,98453.58
2023-03-13T15:16:02.450Z,98446.27
2023-03-13T15:18:34.325Z,98443.66
2023-03-13T15:21:22.432Z,98440.70
2023-03-13T15:24:02.144Z,98445.89
2023-03-13T15:26:29.886Z,98434.74
2023-03-13T15:28:57.685Z,98444.07
2023-03-13T15:31:33.362Z,98441.27
2023-03-13T15:34:01.420Z,98443.98
2023-03-13T15:36:33.317Z,98440.45
2023-03-13T15:39:01.105Z,98439.20
2023-03-13T15:41:28.787Z,98441.59
2023-03-13T15:43:57.440Z,98440.85
2023-03-13T15:46:26.130Z,98435.63
2023-03-13T15:48:53.969Z,98429.22
2023-03-13T15:51:21.432Z,98427.45
2023-03-13T15:53:49.277Z,98426.42
2023-03-13T15:56:23.378Z,98422.95
2023-03-13T15:58:51.508Z,98425.55
2023-03-13T16:01:19.301Z,98423.98
2023-03-13T16:03:46.931Z,98429.84
2023-03-13T16:06:21.331Z,98423.34
2023-03-13T16:08:48.997Z,98425.07
2023-03-13T16:11:17.271Z,98429.39
2023-03-13T16:13:45.361Z,98431.80
2023-03-13T16:16:21.985Z,98428.16
2023-03-13T16:18:51.273Z,98429.02
2023-03-13T16:21:30.043Z,98436.58
2023-03-13T16:23:57.736Z,98442.09
2023-03-13T16:26:29.109Z,98438.79
2023-03-13T16:28:57.938Z,98438.80
2023-03-13T16:31:31.459Z,98441.06
2023-03-13T16:34:01.152Z,98446.26
2023-03-13T16:36:32.887Z,98446.61
2023-03-13T16:39:05.498Z,98453.33
2023-03-13T16:41:33.095Z,98455.52
2023-03-13T16:44:02.700Z,98449.58
2023-03-13T16:46:36.286Z,98451.45
2023-03-13T16:49:05.597Z,98456.23
2023-03-13T16:51:33.674Z,98460.22
2023-03-13T16:54:01.196Z,98459.67
2023-03-13T16:56:44.897Z,98454.29
2023-03-13T16:59:15.392Z,98467.92
2023-03-13T17:01:49.128Z,98467.73
2023-03-13T17:04:17.947Z,98465.97
2023-03-13T17:06:46.057Z,98471.50
2023-03-13T17:09:16.438Z,98465.40
2023-03-13T17:11:44.591Z,98467.11
2023-03-13T17:14:13.496Z,98466.42
2023-03-13T17:16:43.960Z,98470.89
2023-03-13T17:19:16.894Z,98472.41
2023-03-13T17:21:44.591Z,98476.41
2023-03-13T17:24:12.092Z,98475.69
2023-03-13T17:26:40.224Z,98470.85
2023-03-13T17:29:12.629Z,98474.20
2023-03-13T17:31:41.032Z,98481.85
2023-03-13T17:34:08.759Z,98478.61
2023-03-13T17:36:36.640Z,98480.52
2023-03-13T17:39:16.248Z,98477.05
2023-03-13T17:41:45.774Z,98474.48
2023-03-13T17:44:13.247Z,98476.73
2023-03-13T17:46:44.069Z,98474.96
2023-03-13T17:49:14.138Z,98467.14
2023-03-13T17:51:42.310Z,98470.06
2023-03-13T17:54:11.233Z,98472.67
2023-03-13T17:56:40.811Z,98472.52
2023-03-13T17:59:14.659Z,98462.65
2023-03-13T18:01:42.964Z,98468.20
2023-03-13T18:04:11.586Z,98465.44
2023-03-13T18:06:45.101Z,98467.91
2023-03-13T18:09:18.771Z,98465.36
2023-03-13T18:11:47.872Z,98467.04
2023-03-13T18:14:15.909Z,98456.16
2023-03-13T18:16:50.313Z,98454.46
2023-03-13T18:19:23.977Z,98447.91
2023-03-13T18:21:55.242Z,98448.95
2023-03-13T18:24:23.305Z,98447.41
2023-03-13T18:26:54.453Z,98445.29
2023-03-13T18:29:27.695Z,98440.75
2023-03-13T18:31:58.537Z,98437.37
2023-03-13T18:34:32.402Z,98436.46
2023-03-13T18:37:04.595Z,98438.30
2023-03-13T18:39:32.954Z,98439.98
2023-03-13T18:42:01.902Z,98434.52
2023-03-13T18:44:29.769Z,98443.27
2023-03-13T18:46:57.525Z,98443.55
2023-03-13T18:49:25.203Z,98453.71
2023-03-13T18:51:56.203Z,98454.55
2023-03-13T18:54:23.655Z,98459.02
2023-03-13T18:56:51.215Z,98450.17
2023-03-13T18:59:21.648Z,98440.84
2023-03-13T19:01:50.914Z,98440.71
2023-03-13T19:04:19.398Z,98438.62
2023-03-13T19:06:48.144Z,98428.73
2023-03-13T19:09:42.107Z,98422.27
2023-03-13T19:12:11.650Z,98411.88
2023-03-13T19:14:39.198Z,98411.14
2023-03-13T19:17:29.495Z,98413.46
2023-03-13T19:19:57.486Z,98409.92
2023-03-13T19:22:26.360Z,98406.34
2023-03-13T19:24:54.268Z,98402.77
2023-03-13T19:27:21.854Z,98407.86
2023-03-13T19:29:50.046Z,98406.52
2023-03-13T19:32:18.843Z,98412.60
2023-03-13T19:34:47.665Z,98410.17
2023-03-13T19:37:18.954Z,98399.26
2023-03-13T19:39:47.088Z,98396.88
2023-03-13T19:42:14.614Z,98395.68
2023-03-13T19:44:42.360Z,98394.88
2023-03-13T19:47:14.661Z,98395.67
2023-03-13T19:49:42.183Z,98396.98
2023-03-13T19:52:09.652Z,98406.40
2023-03-13T19:54:37.541Z,98412.98
2023-03-13T19:57:05.086Z,98416.23
2023-03-13T19:59:35.277Z,98414.27
2023-03-13T20:02:05.863Z,98421.96
2023-03-13T20:04:34.430Z,98418.19
2023-03-13T20:07:03.498Z,98412.84
2023-03-13T20:09:31.394Z,98411.89
2023-03-13T20:11:59.386Z,98413.70
2023-03-13T20:14:28.973Z,98410.68
2023-03-13T20:16:56.473Z,98405.23
2023-03-13T20:19:29.087Z,98415.36
2023-03-13T20:22:03.289Z,98410.05
2023-03-13T20:24:35.348Z,98406.27
2023-03-13T20:27:04.494Z,98401.28
2023-03-13T20:29:33.754Z,98393.86
2023-03-13T20:32:04.510Z,98381.60
2023-03-13T20:34:32.154Z,98386.36
2023-03-13T20:36:59.998Z,98391.80
2023-03-13T20:39:28.061Z,98391.52
2023-03-13T20:41:56.204Z,98391.96
2023-03-13T20:44:23.712Z,98390.82
2023-03-13T20:46:51.334Z,98386.92
2023-03-13T20:49:18.988Z,98380.05
2023-03-13T20:51:55.537Z,98373.88
2023-03-13T20:54:28.216Z,98371.13
2023-03-13T20:56:58.026Z,98365.80
2023-03-13T20:59:25.704Z,98362.75
2023-03-13T21:01:53.254Z,98356.61
2023-03-13T21:04:20.851Z,98353.58
2023-03-13T21:06:49.906Z,98349.73
2023-03-13T21:09:17.926Z,98342.05
2023-03-13T21:11:46.448Z,98347.86
2023-03-13T21:14:13.947Z,98345.68
2023-03-13T21:16:41.645Z,98340.54
2023-03-13T21:19:09.129Z,98340.94
2023-03-13T21:21:36.807Z,98341.54
2023-03-13T21:24:04.596Z,98332.36
2023-03-13T21:26:32.304Z,98323.05
2023-03-13T21:28:59.815Z,98318.08
2023-03-13T21:31:27.692Z,98318.27
2023-03-13T21:33:55.687Z,98316.38
2023-03-13T21:36:23.392Z,98314.46
2023-03-13T21:38:51.133Z,98306.55
2023-03-13T21:41:22.054Z,98311.98
2023-03-13T21:43:49.606Z,98310.06
2023-03-13T21:46:18.276Z,98311.27
2023-03-13T21:48:47.316Z,98309.70
2023-03-13T21:51:16.094Z,98309.67
2023-03-13T21:53:44.552Z,98311.08
2023-03-13T21:56:15.985Z,98319.60
2023-03-13T21:58:45.347Z,98320.27
2023-03-13T22:01:14.792Z,98307.05
2023-03-13T22:03:43.763Z,98303.38
2023-03-13T22:06:16.063Z,98298.88
2023-03-13T22:08:44.036Z,98299.41
2023-03-13T22:11:11.583Z,98292.85
2023-03-13T22:13:39.353Z,98295.98
2023-03-13T22:16:07.715Z,98291.27
2023-03-13T22:18:35.256Z,98283.46
2023-03-13T22:21:03.050Z,98282.91
2023-03-13T22:23:31.439Z,98281.33
2023-03-13T22:25:59.818Z,98281.83
2023-03-13T22:28:27.752Z,98279.98
2023-03-13T22:30:55.301Z,98276.39
2023-03-13T22:33:23.530Z,98274.52
2023-03-13T22:35:54.492Z,98281.15
2023-03-13T22:38:22.714Z,98267.00
2023-03-13T22:41:02.488Z,98264.72
2023-03-13T22:43:30.884Z,98257.44
2023-03-13T22:45:58.660Z,98258.32
2023-03-13T22:48:26.781Z,98246.19
2023-03-13T22:51:01.833Z,98228.65
2023-03-13T22:53:30.985Z,98225.30
2023-03-13T22:55:58.893Z,98223.57
2023-03-13T22:58:26.754Z,98206.58
2023-03-13T23:00:55.207Z,98199.34
2023-03-13T23:03:23.173Z,98200.59
2023-03-13T23:05:50.734Z,98188.55
2023-03-13T23:08:18.357Z,98175.94
2023-03-13T23:10:47.372Z,98172.18
2023-03-13T23:13:15.516Z,98176.58
2023-03-13T23:15:55.509Z,98173.16
2023-03-13T23:18:31.521Z,98169.48
2023-03-13T23:20:59.027Z,98175.52
2023-03-13T23:23:26.488Z,98177.66
2023-03-13T23:25:54.057Z,98176.07
2023-03-13T23:28:21.657Z,98174.53
2023-03-13T23:30:49.167Z,98174.96
2023-03-13T23:33:16.860Z,98171.23
2023-03-13T23:35:45.313Z,98171.49
2023-03-13T23:38:14.816Z,98175.05
2023-03-13T23:40:42.267Z,98185.33
2023-03-13T23:43:09.730Z,98178.39
2023-03-13T23:45:37.261Z,98182.78
2023-03-13T23:48:06.414Z,98185.80
2023-03-13T23:50:33.860Z,98185.31
2023-03-13T23:53:01.389Z,98190.41
2023-03-13T23:55:29.069Z,98188.86
2023-03-13T23:57:56.909Z,98186.80
